sensor_id;sensor_type;location;lat;lon;timestamp;pressure;altitude;pressure_sealevel;temperature;humidity
7966;BME280;4028;43.272;26.932;2023-03-19T00:00:11;99744.91;;;7.18;100.00
7966;BME280;4028;43.272;26.932;2023-03-19T00:02:37;99743.88;;;7.08;100.00
7966;BME280;4028;43.272;26.932;2023-03-19T00:05:03;99747.34;;;7.09;100.00
7966;BME280;4028;43.272;26.932;2023-03-19T00:07:29;99738.88;;;7.16;100.00
7966;BME280;4028;43.272;26.932;2023-03-19T00:09:54;99739.25;;;7.12;100.00
7966;BME280;4028;43.272;26.932;2023-03-19T00:12:20;99748.38;;;7.19;100.00
7966;BME280;4028;43.272;26.932;2023-03-19T00:14:45;99721.75;;;7.11;100.00
7966;BME280;4028;43.272;26.932;2023-03-19T00:17:11;99741.19;;;7.21;100.00
7966;BME280;4028;43.272;26.932;2023-03-19T00:19:37;99731.75;;;7.18;100.00
7966;BME280;4028;43.272;26.932;2023-03-19T00:22:03;99731.53;;;7.09;100.00
7966;BME280;4028;43.272;26.932;2023-03-19T00:24:29;99742.78;;;7.11;100.00
7966;BME280;4028;43.272;26.932;2023-03-19T00:26:54;99743.88;;;7.08;100.00
7966;BME280;4028;43.272;26.932;2023-03-19T00:29:20;99740.69;;;7.16;100.00
7966;BME280;4028;43.272;26.932;2023-03-19T00:31:47;99733.84;;;7.13;100.00
7966;BME280;4028;43.272;26.932;2023-03-19T00:34:13;99736.41;;;7.02;100.00
7966;BME280;4028;43.272;26.932;2023-03-19T00:36:38;99745.97;;;7.03;100.00
7966;BME280;4028;43.272;26.932;2023-03-19T00:39:04;99743.34;;;7.03;100.00
7966;BME280;4028;43.272;26.932;2023-03-19T00:41:30;99740.59;;;7.04;100.00
7966;BME280;4028;43.272;26.932;2023-03-19T00:43:57;99713.25;;;6.94;100.00
7966;BME280;4028;43.272;26.932;2023-03-19T00:46:23;99739.00;;;7.15;100.00
7966;BME280;4028;43.272;26.932;2023-03-19T00:48:49;99737.66;;;7.22;100.00
7966;BME280;4028;43.272;26.932;2023-03-19T00:51:18;99734.25;;;7.20;100.00
7966;BME280;4028;43.272;26.932;2023-03-19T00:53:44;99740.78;;;7.27;100.00
7966;BME280;4028;43.272;26.932;2023-03-19T00:56:11;99738.47;;;7.22;100.00
7966;BME280;4028;43.272;26.932;2023-03-19T00:58:37;99738.56;;;7.21;100.00
7966;BME280;4028;43.272;26.932;2023-03-19T01:01:06;99740.69;;;7.28;100.00
7966;BME280;4028;43.272;26.932;2023-03-19T01:03:31;99737.72;;;7.20;100.00
7966;BME280;4028;43.272;26.932;2023-03-19T01:05:57;99734.91;;;7.11;100.00
7966;BME280;4028;43.272;26.932;2023-03-19T01:08:23;99731.00;;;7.16;100.00
7966;BME280;4028;43.272;26.932;2023-03-19T01:10:49;99728.88;;;7.21;100.00
7966;BME280;4028;43.272;26.932;2023-03-19T01:13:14;99727.94;;;7.22;100.00
7966;BME280;4028;43.272;26.932;2023-03-19T01:15:42;99725.31;;;7.22;100.00
7966;BME280;4028;43.272;26.932;2023-03-19T01:18:09;99729.44;;;7.14;100.00
7966;BME280;4028;43.272;26.932;2023-03-19T01:20:36;99714.91;;;7.08;100.00
7966;BME280;4028;43.272;26.932;2023-03-19T01:23:03;99722.94;;;7.07;100.00
7966;BME280;4028;43.272;26.932;2023-03-19T01:25:28;99723.66;;;7.09;100.00
7966;BME280;4028;43.272;26.932;2023-03-19T01:27:54;99720.63;;;7.02;100.00
7966;BME280;4028;43.272;26.932;2023-03-19T01:30:19;99721.13;;;7.07;100.00
7966;BME280;4028;43.272;26.932;2023-03-19T01:32:45;99687.16;;;6.91;100.00
7966;BME280;4028;43.272;26.932;2023-03-19T01:35:11;99726.81;;;7.14;100.00
7966;BME280;4028;43.272;26.932;2023-03-19T01:37:36;99727.13;;;7.09;100.00
7966;BME280;4028;43.272;26.932;2023-03-19T01:40:05;99702.75;;;6.82;100.00
7966;BME280;4028;43.272;26.932;2023-03-19T01:42:32;99721.25;;;6.93;100.00
7966;BME280;4028;43.272;26.932;2023-03-19T01:44:58;99715.88;;;6.94;100.00
7966;BME280;4028;43.272;26.932;2023-03-19T01:49:55;99714.91;;;7.08;100.00
7966;BME280;4028;43.272;26.932;2023-03-19T01:52:24;99709.94;;;7.16;100.00
7966;BME280;4028;43.272;26.932;2023-03-19T01:54:52;99713.00;;;7.10;100.00
7966;BME280;4028;43.272;26.932;2023-03-19T01:57:20;99719.94;;;7.11;100.00
7966;BME280;4028;43.272;26.932;2023-03-19T01:59:58;99704.66;;;7.16;100.00
7966;BME280;4028;43.272;26.932;2023-03-19T02:02:33;99706.25;;;7.19;100.00
7966;BME280;4028;43.272;26.932;2023-03-19T02:05:06;99715.44;;;7.13;100.00
7966;BME280;4028;43.272;26.932;2023-03-19T02:07:34;99714.91;;;7.08;100.00
7966;BME280;4028;43.272;26.932;2023-03-19T02:10:04;99708.19;;;7.17;100.00
7966;BME280;4028;43.272;26.932;2023-03-19T02:12:31;99719.34;;;7.08;100.00
7966;BME280;4028;43.272;26.932;2023-03-19T02:14:57;99725.53;;;7.19;100.00
7966;BME280;4028;43.272;26.932;2023-03-19T02:17:23;99708.19;;;7.04;100.00
7966;BME280;4028;43.272;26.932;2023-03-19T02:19:56;99726.28;;;7.09;100.00
7966;BME280;4028;43.272;26.932;2023-03-19T02:22:26;99729.44;;;7.14;100.00
7966;BME280;4028;43.272;26.932;2023-03-19T02:27:28;99720.81;;;7.12;100.00
7966;BME280;4028;43.272;26.932;2023-03-19T02:29:54;99723.09;;;7.16;100.00
7966;BME280;4028;43.272;26.932;2023-03-19T02:32:19;99730.16;;;7.16;100.00
7966;BME280;4028;43.272;26.932;2023-03-19T02:34:46;99740.31;;;6.96;100.00
7966;BME280;4028;43.272;26.932;2023-03-19T02:37:16;99747.78;;;7.02;100.00
7966;BME280;4028;43.272;26.932;2023-03-19T02:40:35;99741.97;;;7.10;100.00
7966;BME280;4028;43.272;26.932;2023-03-19T02:42:55;99747.66;;;7.17;100.00
7966;BME280;4028;43.272;26.932;2023-03-19T02:45:21;99752.56;;;7.21;100.00
7966;BME280;4028;43.272;26.932;2023-03-19T02:47:47;99741.44;;;7.05;100.00
7966;BME280;4028;43.272;26.932;2023-03-19T02:50:12;99743.31;;;7.16;100.00
7966;BME280;4028;43.272;26.932;2023-03-19T02:52:38;99751.44;;;7.13;100.00
7966;BME280;4028;43.272;26.932;2023-03-19T02:55:04;99751.88;;;7.07;100.00
7966;BME280;4028;43.272;26.932;2023-03-19T02:57:29;99758.50;;;7.12;100.00
7966;BME280;4028;43.272;26.932;2023-03-19T02:59:55;99749.41;;;7.16;100.00
7966;BME280;4028;43.272;26.932;2023-03-19T03:02:20;99746.78;;;7.16;100.00
7966;BME280;4028;43.272;26.932;2023-03-19T03:04:46;99745.88;;;7.17;100.00
7966;BME280;4028;43.272;26.932;2023-03-19T03:07:11;99758.69;;;7.22;100.00
7966;BME280;4028;43.272;26.932;2023-03-19T03:09:37;99757.75;;;7.23;100.00
7966;BME280;4028;43.272;26.932;2023-03-19T03:12:03;99756.28;;;7.06;100.00
7966;BME280;4028;43.272;26.932;2023-03-19T03:14:28;99774.91;;;7.16;100.00
7966;BME280;4028;43.272;26.932;2023-03-19T03:16:54;99771.00;;;7.21;100.00
7966;BME280;4028;43.272;26.932;2023-03-19T03:19:19;99761.53;;;7.06;100.00
7966;BME280;4028;43.272;26.932;2023-03-19T03:21:45;99765.44;;;7.13;100.00
7966;BME280;4028;43.272;26.932;2023-03-19T03:24:11;99758.19;;;7.04;100.00
7966;BME280;4028;43.272;26.932;2023-03-19T03:26:36;99779.56;;;7.12;100.00
7966;BME280;4028;43.272;26.932;2023-03-19T03:29:06;99773.25;;;7.02;100.00
7966;BME280;4028;43.272;26.932;2023-03-19T03:31:32;99781.34;;;7.12;100.00
7966;BME280;4028;43.272;26.932;2023-03-19T03:33:58;99775.72;;;7.16;100.00
7966;BME280;4028;43.272;26.932;2023-03-19T03:36:25;99774.56;;;7.20;100.00
7966;BME280;4028;43.272;26.932;2023-03-19T03:38:51;99780.59;;;7.22;100.00
7966;BME280;4028;43.272;26.932;2023-03-19T03:41:17;99767.13;;;7.14;100.00
7966;BME280;4028;43.272;26.932;2023-03-19T03:43:43;99774.81;;;7.17;100.00
7966;BME280;4028;43.272;26.932;2023-03-19T03:46:08;99779.34;;;7.02;100.00
7966;BME280;4028;43.272;26.932;2023-03-19T03:48:34;99772.59;;;6.98;100.00
7966;BME280;4028;43.272;26.932;2023-03-19T03:51:00;99769.44;;;6.93;100.00
7966;BME280;4028;43.272;26.932;2023-03-19T03:53:26;99777.03;;;6.98;100.00
7966;BME280;4028;43.272;26.932;2023-03-19T03:55:51;99774.09;;;7.02;100.00
7966;BME280;4028;43.272;26.932;2023-03-19T03:58:17;99781.44;;;6.97;100.00
7966;BME280;4028;43.272;26.932;2023-03-19T04:00:43;99759.25;;;6.76;100.00
7966;BME280;4028;43.272;26.932;2023-03-19T04:03:08;99780.28;;;6.89;100.00
7966;BME280;4028;43.272;26.932;2023-03-19T04:05:34;99783.44;;;6.94;100.00
7966;BME280;4028;43.272;26.932;2023-03-19T04:08:01;99780.94;;;6.92;100.00
7966;BME280;4028;43.272;26.932;2023-03-19T04:10:27;99779.63;;;6.85;100.00
7966;BME280;4028;43.272;26.932;2023-03-19T04:12:53;99787.34;;;6.88;100.00
7966;BME280;4028;43.272;26.932;2023-03-19T04:15:18;99786.06;;;6.94;100.00
7966;BME280;4028;43.272;26.932;2023-03-19T04:17:44;99778.91;;;6.96;100.00
7966;BME280;4028;43.272;26.932;2023-03-19T04:20:10;99784.09;;;6.97;100.00
7966;BME280;4028;43.272;26.932;2023-03-19T04:22:36;99762.72;;;6.76;100.00
7966;BME280;4028;43.272;26.932;2023-03-19T04:25:02;99774.81;;;6.92;100.00
7966;BME280;4028;43.272;26.932;2023-03-19T04:27:29;99775.75;;;6.91;100.00
7966;BME280;4028;43.272;26.932;2023-03-19T04:29:54;99776.28;;;6.96;100.00
7966;BME280;4028;43.272;26.932;2023-03-19T04:32:20;99769.84;;;7.00;100.00
7966;BME280;4028;43.272;26.932;2023-03-19T04:34:45;99766.28;;;7.01;100.00
7966;BME280;4028;43.272;26.932;2023-03-19T04:37:11;99775.22;;;6.98;100.00
7966;BME280;4028;43.272;26.932;2023-03-19T04:39:36;99774.16;;;7.01;100.00
7966;BME280;4028;43.272;26.932;2023-03-19T04:42:02;99785.22;;;7.06;100.00
7966;BME280;4028;43.272;26.932;2023-03-19T04:44:29;99791.25;;;7.08;100.00
7966;BME280;4028;43.272;26.932;2023-03-19T04:46:55;99779.13;;;7.06;100.00
7966;BME280;4028;43.272;26.932;2023-03-19T04:49:20;99793.88;;;7.08;100.00
7966;BME280;4028;43.272;26.932;2023-03-19T04:51:46;99803.34;;;6.98;100.00
7966;BME280;4028;43.272;26.932;2023-03-19T04:54:11;99801.44;;;7.00;100.00
7966;BME280;4028;43.272;26.932;2023-03-19T04:56:37;99793.53;;;7.00;100.00
7966;BME280;4028;43.272;26.932;2023-03-19T04:59:02;99795.13;;;7.02;100.00
7966;BME280;4028;43.272;26.932;2023-03-19T05:01:28;99801.75;;;7.08;100.00
7966;BME280;4028;43.272;26.932;2023-03-19T05:03:53;99806.78;;;7.11;100.00
7966;BME280;4028;43.272;26.932;2023-03-19T05:06:19;99781.44;;;6.97;100.00
7966;BME280;4028;43.272;26.932;2023-03-19T05:08:45;99789.75;;;7.17;100.00
7966;BME280;4028;43.272;26.932;2023-03-19T05:11:11;99803.13;;;7.14;100.00
7966;BME280;4028;43.272;26.932;2023-03-19T05:13:37;99797.13;;;7.12;100.00
7966;BME280;4028;43.272;26.932;2023-03-19T05:16:02;99804.81;;;7.15;100.00
7966;BME280;4028;43.272;26.932;2023-03-19T05:18:28;99801.13;;;7.17;100.00
7966;BME280;4028;43.272;26.932;2023-03-19T05:20:54;99804.38;;;7.34;100.00
7966;BME280;4028;43.272;26.932;2023-03-19T05:23:20;99781.13;;;7.27;100.00
7966;BME280;4028;43.272;26.932;2023-03-19T05:25:45;99799.75;;;7.37;100.00
7966;BME280;4028;43.272;26.932;2023-03-19T05:28:12;99807.72;;;7.36;100.00
7966;BME280;4028;43.272;26.932;2023-03-19T05:30:37;99811.00;;;7.39;100.00
7966;BME280;4028;43.272;26.932;2023-03-19T05:33:03;99811.97;;;7.38;100.00
7966;BME280;4028;43.272;26.932;2023-03-19T05:35:29;99802.69;;;7.33;100.00
7966;BME280;4028;43.272;26.932;2023-03-19T05:37:55;99805.94;;;7.36;100.00
7966;BME280;4028;43.272;26.932;2023-03-19T05:40:21;99821.41;;;7.41;100.00
7966;BME280;4028;43.272;26.932;2023-03-19T05:42:48;99778.81;;;7.23;100.00
7966;BME280;4028;43.272;26.932;2023-03-19T05:45:15;99816.22;;;7.52;100.00
7966;BME280;4028;43.272;26.932;2023-03-19T05:47:42;99808.38;;;7.39;100.00
7966;BME280;4028;43.272;26.932;2023-03-19T05:50:08;99814.34;;;7.54;100.00
7966;BME280;4028;43.272;26.932;2023-03-19T05:52:34;99816.06;;;7.42;100.00
7966;BME280;4028;43.272;26.932;2023-03-19T05:55:00;99817.44;;;7.35;100.00
7966;BME280;4028;43.272;26.932;2023-03-19T05:57:26;99816.59;;;7.35;100.00
7966;BME280;4028;43.272;26.932;2023-03-19T05:59:51;99812.16;;;7.35;100.00
7966;BME280;4028;43.272;26.932;2023-03-19T06:02:17;99815.41;;;7.51;100.00
7966;BME280;4028;43.272;26.932;2023-03-19T06:04:43;99807.03;;;7.70;100.00
7966;BME280;4028;43.272;26.932;2023-03-19T06:07:08;99816.53;;;7.73;100.00
7966;BME280;4028;43.272;26.932;2023-03-19T06:09:34;99811.25;;;7.73;100.00
7966;BME280;4028;43.272;26.932;2023-03-19T06:11:59;99816.47;;;7.86;100.00
7966;BME280;4028;43.272;26.932;2023-03-19T06:14:25;99821.31;;;7.92;100.00
7966;BME280;4028;43.272;26.932;2023-03-19T06:16:51;99818.22;;;7.98;100.00
7966;BME280;4028;43.272;26.932;2023-03-19T06:19:16;99810.75;;;7.92;100.00
7966;BME280;4028;43.272;26.932;2023-03-19T06:21:41;99823.81;;;7.93;100.00
7966;BME280;4028;43.272;26.932;2023-03-19T06:24:07;99815.41;;;7.88;100.00
7966;BME280;4028;43.272;26.932;2023-03-19T06:26:33;99822.97;;;7.93;100.00
7966;BME280;4028;43.272;26.932;2023-03-19T06:28:58;99818.00;;;8.01;100.00
7966;BME280;4028;43.272;26.932;2023-03-19T06:31:24;99820.38;;;8.17;100.00
7966;BME280;4028;43.272;26.932;2023-03-19T06:33:50;99812.41;;;8.29;100.00
7966;BME280;4028;43.272;26.932;2023-03-19T06:36:16;99794.47;;;8.34;100.00
7966;BME280;4028;43.272;26.932;2023-03-19T06:38:42;99797.16;;;8.46;100.00
7966;BME280;4028;43.272;26.932;2023-03-19T06:41:08;99815.31;;;8.62;100.00
7966;BME280;4028;43.272;26.932;2023-03-19T06:43:33;99802.09;;;8.85;100.00
7966;BME280;4028;43.272;26.932;2023-03-19T06:46:03;99803.19;;;9.05;100.00
7966;BME280;4028;43.272;26.932;2023-03-19T06:48:29;99806.19;;;9.01;100.00
7966;BME280;4028;43.272;26.932;2023-03-19T06:50:55;99802.81;;;9.10;100.00
7966;BME280;4028;43.272;26.932;2023-03-19T06:53:20;99805.94;;;9.15;100.00
7966;BME280;4028;43.272;26.932;2023-03-19T06:55:46;99804.88;;;9.29;100.00
7966;BME280;4028;43.272;26.932;2023-03-19T06:58:11;99803.81;;;9.54;100.00
7966;BME280;4028;43.272;26.932;2023-03-19T07:00:37;99799.59;;;9.51;100.00
7966;BME280;4028;43.272;26.932;2023-03-19T07:03:02;99812.69;;;9.30;100.00
7966;BME280;4028;43.272;26.932;2023-03-19T07:05:28;99809.69;;;9.13;100.00
7966;BME280;4028;43.272;26.932;2023-03-19T07:07:53;99795.25;;;8.94;100.00
7966;BME280;4028;43.272;26.932;2023-03-19T07:10:19;99793.69;;;8.80;100.00
7966;BME280;4028;43.272;26.932;2023-03-19T07:12:45;99790.94;;;8.93;100.00
7966;BME280;4028;43.272;26.932;2023-03-19T07:15:10;99796.59;;;9.11;100.00
7966;BME280;4028;43.272;26.932;2023-03-19T07:17:36;99804.97;;;9.16;100.00
7966;BME280;4028;43.272;26.932;2023-03-19T07:20:02;99797.94;;;9.28;100.00
7966;BME280;4028;43.272;26.932;2023-03-19T07:22:27;99805.47;;;9.10;100.00
7966;BME280;4028;43.272;26.932;2023-03-19T07:24:53;99802.72;;;9.23;100.00
7966;BME280;4028;43.272;26.932;2023-03-19T07:27:18;99804.75;;;9.19;100.00
7966;BME280;4028;43.272;26.932;2023-03-19T07:29:44;99804.28;;;9.25;100.00
7966;BME280;4028;43.272;26.932;2023-03-19T07:32:10;99803.09;;;9.29;100.00
7966;BME280;4028;43.272;26.932;2023-03-19T07:34:35;99804.41;;;9.13;100.00
7966;BME280;4028;43.272;26.932;2023-03-19T07:37:01;99806.06;;;9.14;100.00
7966;BME280;4028;43.272;26.932;2023-03-19T07:39:27;99806.06;;;9.14;100.00
7966;BME280;4028;43.272;26.932;2023-03-19T07:41:52;99798.03;;;9.26;100.00
7966;BME280;4028;43.272;26.932;2023-03-19T07:44:18;99801.63;;;9.25;100.00
7966;BME280;4028;43.272;26.932;2023-03-19T07:46:43;99804.66;;;9.43;100.00
7966;BME280;4028;43.272;26.932;2023-03-19T07:49:09;99800.19;;;9.55;100.00
7966;BME280;4028;43.272;26.932;2023-03-19T07:51:34;99805.38;;;9.68;100.00
7966;BME280;4028;43.272;26.932;2023-03-19T07:54:00;99800.88;;;9.90;100.00
7966;BME280;4028;43.272;26.932;2023-03-19T07:56:26;99806.38;;;9.99;100.00
7966;BME280;4028;43.272;26.932;2023-03-19T07:58:51;99784.72;;;10.05;100.00
7966;BME280;4028;43.272;26.932;2023-03-19T08:01:17;99799.66;;;10.38;100.00
7966;BME280;4028;43.272;26.932;2023-03-19T08:03:43;99802.97;;;10.30;100.00
7966;BME280;4028;43.272;26.932;2023-03-19T08:06:09;99781.09;;;10.49;100.00
7966;BME280;4028;43.272;26.932;2023-03-19T08:08:34;99799.03;;;11.08;100.00
7966;BME280;4028;43.272;26.932;2023-03-19T08:11:01;99793.69;;;11.29;100.00
7966;BME280;4028;43.272;26.932;2023-03-19T08:13:27;99794.84;;;10.64;100.00
7966;BME280;4028;43.272;26.932;2023-03-19T08:15:55;99796.28;;;10.68;100.00
7966;BME280;4028;43.272;26.932;2023-03-19T08:18:21;99795.19;;;10.91;100.00
7966;BME280;4028;43.272;26.932;2023-03-19T08:20:47;99793.88;;;11.07;100.00
7966;BME280;4028;43.272;26.932;2023-03-19T08:23:13;99792.63;;;11.32;100.00
7966;BME280;4028;43.272;26.932;2023-03-19T08:25:39;99794.09;;;11.55;100.00
7966;BME280;4028;43.272;26.932;2023-03-19T08:28:04;99786.34;;;11.73;100.00
7966;BME280;4028;43.272;26.932;2023-03-19T08:30:30;99787.19;;;11.74;100.00
7966;BME280;4028;43.272;26.932;2023-03-19T08:32:56;99783.88;;;11.51;100.00
7966;BME280;4028;43.272;26.932;2023-03-19T08:35:22;99785.28;;;11.55;100.00
7966;BME280;4028;43.272;26.932;2023-03-19T08:37:48;99788.59;;;11.78;100.00
7966;BME280;4028;43.272;26.932;2023-03-19T08:40:13;99783.09;;;12.10;100.00
7966;BME280;4028;43.272;26.932;2023-03-19T08:42:39;99781.13;;;12.21;100.00
7966;BME280;4028;43.272;26.932;2023-03-19T08:45:08;99784.72;;;12.79;100.00
7966;BME280;4028;43.272;26.932;2023-03-19T08:47:34;99780.44;;;13.89;100.00
7966;BME280;4028;43.272;26.932;2023-03-19T08:49:59;99770.72;;;15.21;80.55
7966;BME280;4028;43.272;26.932;2023-03-19T08:52:25;99779.63;;;16.39;65.78
7966;BME280;4028;43.272;26.932;2023-03-19T08:54:51;99776.44;;;16.35;62.05
7966;BME280;4028;43.272;26.932;2023-03-19T08:57:16;99771.31;;;16.91;58.76
7966;BME280;4028;43.272;26.932;2023-03-19T08:59:42;99778.63;;;17.61;55.52
7966;BME280;4028;43.272;26.932;2023-03-19T09:02:09;99768.09;;;18.22;53.32
7966;BME280;4028;43.272;26.932;2023-03-19T09:04:35;99776.75;;;18.55;51.37
7966;BME280;4028;43.272;26.932;2023-03-19T09:07:03;99771.16;;;19.02;49.91
7966;BME280;4028;43.272;26.932;2023-03-19T09:09:29;99774.41;;;19.42;48.16
7966;BME280;4028;43.272;26.932;2023-03-19T09:11:54;99771.50;;;19.88;46.59
7966;BME280;4028;43.272;26.932;2023-03-19T09:14:20;99766.28;;;19.20;46.09
7966;BME280;4028;43.272;26.932;2023-03-19T09:16:47;99776.13;;;18.67;48.12
7966;BME280;4028;43.272;26.932;2023-03-19T09:19:13;99770.19;;;18.80;48.01
7966;BME280;4028;43.272;26.932;2023-03-19T09:21:38;99769.53;;;18.78;47.53
7966;BME280;4028;43.272;26.932;2023-03-19T09:24:04;99761.38;;;19.09;46.48
7966;BME280;4028;43.272;26.932;2023-03-19T09:26:30;99754.59;;;19.43;45.55
7966;BME280;4028;43.272;26.932;2023-03-19T09:28:55;99757.28;;;19.58;45.33
7966;BME280;4028;43.272;26.932;2023-03-19T09:31:22;99753.47;;;19.52;45.48
7966;BME280;4028;43.272;26.932;2023-03-19T09:33:48;99750.44;;;19.55;44.77
7966;BME280;4028;43.272;26.932;2023-03-19T09:36:13;99734.59;;;19.60;44.27
7966;BME280;4028;43.272;26.932;2023-03-19T09:38:40;99739.22;;;19.52;44.52
7966;BME280;4028;43.272;26.932;2023-03-19T09:41:09;99742.16;;;18.83;45.19
7966;BME280;4028;43.272;26.932;2023-03-19T09:46:43;99737.66;;;19.13;44.09
7966;BME280;4028;43.272;26.932;2023-03-19T09:49:29;99738.13;;;19.46;44.33
7966;BME280;4028;43.272;26.932;2023-03-19T09:57:54;99716.94;;;18.92;44.93
7966;BME280;4028;43.272;26.932;2023-03-19T10:00:33;99723.75;;;17.96;46.39
7966;BME280;4028;43.272;26.932;2023-03-19T10:16:58;99702.63;;;18.01;46.77
7966;BME280;4028;43.272;26.932;2023-03-19T10:19:35;99689.59;;;18.21;46.42
7966;BME280;4028;43.272;26.932;2023-03-19T10:22:06;99688.38;;;18.47;45.83
7966;BME280;4028;43.272;26.932;2023-03-19T10:24:39;99677.19;;;18.81;44.85
7966;BME280;4028;43.272;26.932;2023-03-19T10:27:16;99686.69;;;18.83;43.96
7966;BME280;4028;43.272;26.932;2023-03-19T10:29:42;99682.81;;;18.10;44.72
7966;BME280;4028;43.272;26.932;2023-03-19T10:32:17;99684.63;;;18.18;45.48
7966;BME280;4028;43.272;26.932;2023-03-19T10:34:48;99682.34;;;18.30;45.28
7966;BME280;4028;43.272;26.932;2023-03-19T10:37:16;99675.59;;;18.34;44.31
7966;BME280;4028;43.272;26.932;2023-03-19T10:39:43;99677.00;;;18.07;45.10
7966;BME280;4028;43.272;26.932;2023-03-19T10:42:26;99666.94;;;17.86;45.34
7966;BME280;4028;43.272;26.932;2023-03-19T10:47:40;99650.34;;;18.13;44.53
7966;BME280;4028;43.272;26.932;2023-03-19T10:50:08;99649.34;;;18.82;43.92
7966;BME280;4028;43.272;26.932;2023-03-19T10:52:39;99640.19;;;19.20;42.27
7966;BME280;4028;43.272;26.932;2023-03-19T10:55:15;99642.41;;;19.17;42.65
7966;BME280;4028;43.272;26.932;2023-03-19T10:57:43;99638.69;;;19.54;42.99
7966;BME280;4028;43.272;26.932;2023-03-19T11:00:22;99633.91;;;18.99;43.20
7966;BME280;4028;43.272;26.932;2023-03-19T11:02:53;99630.88;;;18.87;43.32
7966;BME280;4028;43.272;26.932;2023-03-19T11:05:25;99626.03;;;19.12;42.93
7966;BME280;4028;43.272;26.932;2023-03-19T11:08:00;99628.72;;;19.12;42.46
7966;BME280;4028;43.272;26.932;2023-03-19T11:10:28;99625.06;;;19.70;41.51
7966;BME280;4028;43.272;26.932;2023-03-19T11:13:05;99622.47;;;19.77;39.93
7966;BME280;4028;43.272;26.932;2023-03-19T11:15:36;99620.72;;;19.33;41.34
7966;BME280;4028;43.272;26.932;2023-03-19T11:18:29;99614.28;;;19.85;41.27
7966;BME280;4028;43.272;26.932;2023-03-19T11:21:04;99605.84;;;20.38;40.04
7966;BME280;4028;43.272;26.932;2023-03-19T11:23:38;99602.13;;;20.39;40.35
7966;BME280;4028;43.272;26.932;2023-03-19T11:26:04;99600.47;;;20.72;40.00
7966;BME280;4028;43.272;26.932;2023-03-19T11:28:30;99602.69;;;20.62;39.86
7966;BME280;4028;43.272;26.932;2023-03-19T11:31:11;99604.38;;;20.63;39.22
7966;BME280;4028;43.272;26.932;2023-03-19T11:44:57;99585.94;;;20.04;41.37
7966;BME280;4028;43.272;26.932;2023-03-19T11:47:34;99579.81;;;20.73;39.56
7966;BME280;4028;43.272;26.932;2023-03-19T11:50:15;99586.41;;;21.18;38.96
7966;BME280;4028;43.272;26.932;2023-03-19T11:55:26;99578.88;;;20.94;37.83
7966;BME280;4028;43.272;26.932;2023-03-19T12:03:59;99576.66;;;21.04;37.37
7966;BME280;4028;43.272;26.932;2023-03-19T12:11:53;99565.63;;;20.23;38.49
7966;BME280;4028;43.272;26.932;2023-03-19T12:14:47;99569.66;;;20.68;38.70
7966;BME280;4028;43.272;26.932;2023-03-19T12:26:09;99572.28;;;20.62;37.93
7966;BME280;4028;43.272;26.932;2023-03-19T12:34:32;99556.34;;;21.01;37.44
7966;BME280;4028;43.272;26.932;2023-03-19T12:37:20;99562.16;;;21.05;37.76
7966;BME280;4028;43.272;26.932;2023-03-19T12:42:39;99554.97;;;20.08;38.83
7966;BME280;4028;43.272;26.932;2023-03-19T12:45:25;99558.00;;;19.98;38.99
7966;BME280;4028;43.272;26.932;2023-03-19T12:47:58;99548.03;;;19.92;39.79
7966;BME280;4028;43.272;26.932;2023-03-19T12:50:26;99540.94;;;19.85;39.55
7966;BME280;4028;43.272;26.932;2023-03-19T12:52:55;99538.13;;;19.93;39.50
7966;BME280;4028;43.272;26.932;2023-03-19T12:56:05;99547.84;;;19.94;39.48
7966;BME280;4028;43.272;26.932;2023-03-19T12:58:53;99541.66;;;19.72;39.25
7966;BME280;4028;43.272;26.932;2023-03-19T13:04:26;99536.06;;;19.09;39.73
7966;BME280;4028;43.272;26.932;2023-03-19T13:07:01;99527.16;;;18.73;41.11
7966;BME280;4028;43.272;26.932;2023-03-19T13:09:34;99523.16;;;18.83;41.21
7966;BME280;4028;43.272;26.932;2023-03-19T13:12:08;99518.75;;;18.46;41.43
7966;BME280;4028;43.272;26.932;2023-03-19T13:15:00;99522.34;;;18.68;41.66
7966;BME280;4028;43.272;26.932;2023-03-19T13:20:19;99519.69;;;18.53;40.95
7966;BME280;4028;43.272;26.932;2023-03-19T13:22:53;99522.25;;;18.47;41.32
7966;BME280;4028;43.272;26.932;2023-03-19T13:25:24;99519.00;;;18.51;41.47
7966;BME280;4028;43.272;26.932;2023-03-19T13:27:54;99476.69;;;18.32;41.66
7966;BME280;4028;43.272;26.932;2023-03-19T13:30:21;99509.41;;;18.57;41.74
7966;BME280;4028;43.272;26.932;2023-03-19T13:32:51;99494.88;;;18.66;40.83
7966;BME280;4028;43.272;26.932;2023-03-19T13:35:38;99500.16;;;18.59;41.19
7966;BME280;4028;43.272;26.932;2023-03-19T13:38:36;99503.75;;;18.52;41.61
7966;BME280;4028;43.272;26.932;2023-03-19T13:41:02;99497.34;;;17.79;42.50
7966;BME280;4028;43.272;26.932;2023-03-19T13:46:08;99493.44;;;17.66;43.28
7966;BME280;4028;43.272;26.932;2023-03-19T13:48:52;99498.03;;;17.96;42.78
7966;BME280;4028;43.272;26.932;2023-03-19T13:59:37;99488.81;;;18.13;42.59
7966;BME280;4028;43.272;26.932;2023-03-19T14:04:59;99487.31;;;18.10;42.76
7966;BME280;4028;43.272;26.932;2023-03-19T14:07:34;99480.41;;;18.16;42.57
7966;BME280;4028;43.272;26.932;2023-03-19T14:10:09;99480.97;;;17.97;42.58
7966;BME280;4028;43.272;26.932;2023-03-19T14:12:40;99460.66;;;17.64;42.46
7966;BME280;4028;43.272;26.932;2023-03-19T14:20:19;99489.44;;;16.94;44.72
7966;BME280;4028;43.272;26.932;2023-03-19T14:25:52;99482.66;;;16.83;45.12
7966;BME280;4028;43.272;26.932;2023-03-19T14:28:24;99488.31;;;16.88;45.28
7966;BME280;4028;43.272;26.932;2023-03-19T14:30:52;99447.81;;;16.76;44.57
7966;BME280;4028;43.272;26.932;2023-03-19T14:33:26;99487.78;;;16.93;44.81
7966;BME280;4028;43.272;26.932;2023-03-19T14:35:53;99453.81;;;16.70;44.80
7966;BME280;4028;43.272;26.932;2023-03-19T14:40:59;99482.88;;;16.73;45.76
7966;BME280;4028;43.272;26.932;2023-03-19T14:44:11;99474.53;;;16.76;45.50
7966;BME280;4028;43.272;26.932;2023-03-19T14:47:15;99472.53;;;16.70;45.46
7966;BME280;4028;43.272;26.932;2023-03-19T14:49:59;99468.34;;;16.76;45.24
7966;BME280;4028;43.272;26.932;2023-03-19T14:52:39;99453.09;;;16.53;45.68
7966;BME280;4028;43.272;26.932;2023-03-19T14:55:12;99474.41;;;16.61;45.62
7966;BME280;4028;43.272;26.932;2023-03-19T14:57:38;99467.28;;;16.46;45.92
7966;BME280;4028;43.272;26.932;2023-03-19T15:00:05;99472.63;;;16.46;46.08